Corpus Christi, TX (78401)

5:28 PM CDT on August 30, 2016 (GMT -0500)
Aransas Cliffs | | Change Station
Active Advisory: Coastal Flood Advisory

Elev 46 ft 27.75 °N, 97.38 °W | Updated 48 seconds ago

Mostly Cloudy
Mostly Cloudy
80.0 °F
Feels Like 85 °F
N
0.6
Wind Variable Wind from NNE
Gusts 4.0 mph

Today
High -- | Low -- °F
--% Chance of Precip.
Yesterday
High -- | Low -- °F
Precip. -- in
Pressure 29.88 in
Visibility 10.0 miles
Clouds Few 1700 ft
Few 4000 ft
Few 13000 ft
Mostly Cloudy 18000 ft
Mostly Cloudy 25000 ft
Heat Index 85 °F
Dew Point 74 °F
Humidity 83%
Rainfall 0.58 in
Snow Depth Not available.
7:07 AM 7:51 PM
Waning Crescent, 2% visible
METAR KCRP 302151Z 05010KT 10SM FEW017 FEW040 FEW130 BKN180 BKN250 28/24 A2989 RMK AO2 SLP119 CB DSNT N NE SW TCU DSNT N W T02780239
Pressure 29.88 in
Visibility 10.0 miles
Clouds Few 1700 ft
Few 4000 ft
Few 13000 ft
Mostly Cloudy 18000 ft
Mostly Cloudy 25000 ft
Heat Index 85 °F
Dew Point 74 °F
Humidity 83%
Rainfall 0.58 in
Snow Depth Not available.
7:07 AM 7:51 PM
Waning Crescent, 2% visible
METAR KCRP 302151Z 05010KT 10SM FEW017 FEW040 FEW130 BKN180 BKN250 28/24 A2989 RMK AO2 SLP119 CB DSNT N NE SW TCU DSNT N W T02780239

10-Day Weather Forecast

Almanac

Astronomy

Aug. 30, 2016 Rise Set
Actual Time
Civil Twilight
Nautical Twilight
Astronomical Twilight
Moon
Length of Visible Light
Length of Day
Tomorrow will be .
, % of the Moon is Illuminated

Today's Extremes

State Highs State Lows

Community

WunderPhotos

Upload Photos

1,935,911 photos uploaded!

WunderBlog® & News

Nearby

Air Quality

  Air Quality AQ Index Pollutant
Not available.

Snow Depth

Station Depth Elevation

Earthquake Activity

City Distance Mag. Time & Date
Minimum magnitude displayed is 2.5.

Coastal Water Temperatures

Place Temperature

Stations

Nearby Weather Stations

Station Location Temp. Windchill Dew Point Humidity Wind Precip. Elev Updated Type
                   

Watches & Warnings

Coastal Flood Advisory
Issued: 3:10 PM CDT Aug. 30, 2016 – National Weather Service

... Coastal Flood Advisory now in effect until 8 am CDT
Wednesday...

* coastal flooding... tide levels near or just above 2 feet mean
sea level around the time of high tide.

* Timing... the next high tide at Port Aransas will occur around
441 am CDT Wednesday morning.

* Impacts... at 2 feet above mean sea level... several beach
access roads become flooded. Minor flooding along area beaches
may occur. Steady periods of water at the dunes may occur.
Water may flood portions of Laguna shores drive in Flour
Bluff. North Beach may experience minor flooding.

Precautionary/preparedness actions...

A coastal Flood Advisory indicates that onshore winds and tides
will combine to generate flooding of low areas along the shore.